首页
METAR-TAF:

METAR-TAF

机场 :

Newton City/County Airport

牛顿, 堪薩斯州, 美国

纬度: 38-03N, 经度: 097-17W, 海拔: 467米

当前天气观测

该预报发布于20分钟前的02:56 UTC
风速7节,风向
温度 2°C
湿度 47%
气压 1020 hPa
能見度: 16.1公里
多云层高于3800英尺

METAR: KEWK 140256Z AUTO 01007KT 10SM BKN038 02/M08 A3011 RMK AO2 SLP206 T00171078 51025 FZRANO

时间: 21:16 (03:16 UTC)


TAF: 丢失

超过4000个机场的气象观测和天气预报(METAR&TAF报告)。

可查询的气象台以黄色和红色小点在地图上表示。

将鼠标移到小点上方,可查看气象台名称。

然后点击查看天气观测和预报。

如需切换地图:点击带黑十字的绿色按钮放大地图;点击带横线的绿色按钮缩小地图;或者点击绿色箭头查看邻近地区的地图。


METAR-TAF: